Terminal Aerodrome Forecast
Issued by NWS

Home | Current Version | Previous Version | Text Only | Print | Product List | Glossary On
Versions: 1 2 3 4 5 6 7 8 9 10 11 12 13 14 15 16 17 18 19 20
000
FTUS41 KILN 030500
TAFLCK
TAF
KLCK 030533Z 0306/0406 06005KT P6SM BKN025 OVC035
      TEMPO 0308/0312 4SM BR OVC018
     FM031600 10006KT P6SM BKN035
     FM032300 12004KT P6SM BKN050=

USA.gov is the U.S. government's official web portal to all federal, state and local government web resources and services.